createdAt,value
2017-05-14T00:00:23.844Z,14.75
2017-05-14T00:01:04.414Z,14.77
2017-05-14T00:01:44.988Z,14.78
2017-05-14T00:02:25.568Z,14.8
2017-05-14T00:03:06.150Z,14.78
2017-05-14T00:03:46.740Z,14.81
2017-05-14T00:04:27.322Z,14.84
2017-05-14T00:05:07.887Z,14.83
2017-05-14T00:05:48.455Z,14.83
2017-05-14T00:06:29.045Z,14.84
2017-05-14T00:07:09.616Z,14.81
2017-05-14T00:07:50.193Z,14.88
2017-05-14T00:08:30.761Z,14.91
2017-05-14T00:09:11.333Z,14.88
2017-05-14T00:09:51.912Z,14.81
2017-05-14T00:10:32.478Z,14.88
2017-05-14T00:11:13.084Z,14.88
2017-05-14T00:11:53.642Z,14.84
2017-05-14T00:12:34.213Z,14.86
2017-05-14T00:13:14.782Z,14.83
2017-05-14T00:13:55.375Z,14.86
2017-05-14T00:14:35.940Z,14.78
2017-05-14T00:15:16.513Z,14.73
2017-05-14T00:15:57.084Z,14.83
2017-05-14T00:16:37.680Z,14.88
2017-05-14T00:17:18.251Z,14.84
2017-05-14T00:17:58.828Z,14.86
2017-05-14T00:18:39.392Z,14.86
2017-05-14T00:19:19.985Z,14.86
2017-05-14T00:20:00.555Z,14.77
2017-05-14T00:20:41.125Z,14.84
2017-05-14T00:21:21.704Z,14.84
2017-05-14T00:22:02.289Z,14.88
2017-05-14T00:22:42.881Z,14.73
2017-05-14T00:23:23.453Z,14.84
2017-05-14T00:24:04.051Z,14.86
2017-05-14T00:24:44.630Z,14.8
2017-05-14T00:25:25.221Z,14.8
2017-05-14T00:26:05.796Z,14.86
2017-05-14T00:26:46.372Z,14.73
2017-05-14T00:27:26.942Z,14.77
2017-05-14T00:28:07.518Z,14.78
2017-05-14T00:28:48.121Z,14.75
2017-05-14T00:29:28.694Z,14.7
2017-05-14T00:30:09.264Z,14.75
2017-05-14T00:30:49.832Z,14.8
2017-05-14T00:31:30.406Z,14.75
2017-05-14T00:32:10.992Z,14.7
2017-05-14T00:32:51.578Z,14.75
2017-05-14T00:33:32.157Z,14.64
2017-05-14T00:34:12.731Z,14.68
2017-05-14T00:34:53.305Z,14.69
2017-05-14T00:35:33.882Z,14.68
2017-05-14T00:36:14.462Z,14.69
2017-05-14T00:36:55.040Z,14.69
2017-05-14T00:37:35.611Z,14.64
2017-05-14T00:38:16.192Z,14.65
2017-05-14T00:38:56.777Z,14.58
2017-05-14T00:39:37.368Z,14.62
2017-05-14T00:40:17.946Z,14.64
2017-05-14T00:40:58.522Z,14.61
2017-05-14T00:41:39.120Z,14.62
2017-05-14T00:42:19.699Z,14.65
2017-05-14T00:43:00.292Z,14.6
2017-05-14T00:43:40.864Z,14.61
2017-05-14T00:44:21.447Z,14.55
2017-05-14T00:45:02.009Z,14.58
2017-05-14T00:45:42.582Z,14.54
2017-05-14T00:46:23.170Z,14.52
2017-05-14T00:47:03.736Z,14.57
2017-05-14T00:47:44.323Z,14.47
2017-05-14T00:48:24.887Z,14.55
2017-05-14T00:49:05.453Z,14.45
2017-05-14T00:49:46.025Z,14.45
2017-05-14T00:50:26.615Z,14.4
2017-05-14T00:51:07.230Z,14.45
2017-05-14T00:51:47.798Z,14.47
2017-05-14T00:52:28.372Z,14.43
2017-05-14T00:53:08.943Z,14.4
2017-05-14T00:53:49.530Z,14.37
2017-05-14T00:54:30.103Z,14.33
2017-05-14T00:55:10.677Z,14.37
2017-05-14T00:55:51.262Z,14.36
2017-05-14T00:56:31.834Z,14.36
2017-05-14T00:57:12.407Z,14.35
2017-05-14T00:57:52.980Z,14.33
2017-05-14T00:58:33.556Z,14.33
2017-05-14T00:59:14.124Z,14.32
2017-05-14T00:59:54.696Z,14.37
2017-05-14T01:00:35.291Z,14.21
2017-05-14T01:01:15.879Z,14.28
2017-05-14T01:01:56.468Z,14.25
2017-05-14T01:02:37.045Z,14.21
2017-05-14T01:03:17.637Z,14.2
2017-05-14T01:03:58.235Z,14.21
2017-05-14T01:04:38.811Z,14.27
2017-05-14T01:05:19.383Z,14.24
2017-05-14T01:05:59.955Z,14.2
2017-05-14T01:06:40.520Z,14.22
2017-05-14T01:07:21.101Z,14.22
2017-05-14T01:08:01.673Z,14.32
2017-05-14T01:08:42.299Z,14.2
2017-05-14T01:09:22.830Z,14.2
2017-05-14T01:10:03.409Z,14.22
2017-05-14T01:10:43.976Z,14.25
2017-05-14T01:11:24.548Z,14.24
2017-05-14T01:12:05.116Z,14.2
2017-05-14T01:12:45.707Z,14.2
2017-05-14T01:13:26.280Z,14.21
2017-05-14T01:14:06.870Z,14.17
2017-05-14T01:14:47.450Z,14.21
2017-05-14T01:15:28.021Z,14.21
2017-05-14T01:16:08.626Z,14.25
2017-05-14T01:16:49.215Z,14.14
2017-05-14T01:17:29.782Z,14.18
2017-05-14T01:18:10.368Z,14.18
2017-05-14T01:18:50.959Z,14.17
2017-05-14T01:19:31.529Z,14.17
2017-05-14T01:20:12.120Z,14.15
2017-05-14T01:20:52.713Z,14.14
2017-05-14T01:21:33.287Z,14.15
2017-05-14T01:22:13.855Z,14.17
2017-05-14T01:22:54.423Z,14.12
2017-05-14T01:23:35.008Z,14.14
2017-05-14T01:24:15.579Z,14.14
2017-05-14T01:24:56.148Z,14.12
2017-05-14T01:25:36.715Z,14.12
2017-05-14T01:26:17.289Z,14.14
2017-05-14T01:26:57.878Z,14.12
2017-05-14T01:27:38.450Z,14.12
2017-05-14T01:28:19.018Z,14.09
2017-05-14T01:28:59.585Z,14.17
2017-05-14T01:29:40.158Z,14.17
2017-05-14T01:30:20.756Z,14.15
2017-05-14T01:31:01.324Z,14.09
2017-05-14T01:31:41.901Z,14.14
2017-05-14T01:32:22.482Z,14.14
2017-05-14T01:33:03.070Z,14.07
2017-05-14T01:33:43.654Z,14.12
2017-05-14T01:34:24.244Z,14.14
2017-05-14T01:35:04.821Z,14.07
2017-05-14T01:35:45.411Z,14.04
2017-05-14T01:36:26.007Z,14.04
2017-05-14T01:37:06.576Z,14.07
2017-05-14T01:37:47.174Z,14.09
2017-05-14T01:38:27.760Z,14.04
2017-05-14T01:39:08.345Z,14.09
2017-05-14T01:39:48.919Z,14.07
2017-05-14T01:40:29.509Z,14.03
2017-05-14T01:41:10.102Z,14.09
2017-05-14T01:41:50.675Z,14.03
2017-05-14T01:42:31.251Z,14.04
2017-05-14T01:43:11.842Z,13.97
2017-05-14T01:43:52.428Z,14.03
2017-05-14T01:44:33.040Z,14
2017-05-14T01:45:13.635Z,14.02
2017-05-14T01:45:54.255Z,13.97
2017-05-14T01:46:34.836Z,14.03
2017-05-14T01:47:15.425Z,13.97
2017-05-14T01:47:56.002Z,14.06
2017-05-14T01:48:36.602Z,14.04
2017-05-14T01:49:17.185Z,13.97
2017-05-14T01:49:57.790Z,14.02
2017-05-14T01:50:38.388Z,13.97
2017-05-14T01:51:18.965Z,13.91
2017-05-14T01:51:59.545Z,14
2017-05-14T01:52:40.122Z,13.89
2017-05-14T01:53:20.695Z,13.95
2017-05-14T01:54:01.264Z,13.99
2017-05-14T01:54:41.858Z,13.96
2017-05-14T01:55:22.477Z,13.96
2017-05-14T01:56:03.061Z,13.97
2017-05-14T01:56:43.642Z,14.02
2017-05-14T01:57:24.231Z,13.95
2017-05-14T01:58:04.802Z,13.99
2017-05-14T01:58:45.371Z,14.03
2017-05-14T01:59:25.959Z,13.99
2017-05-14T02:00:06.536Z,13.99
2017-05-14T02:00:47.112Z,13.99
2017-05-14T02:01:27.696Z,14.06
2017-05-14T02:02:08.266Z,14.04
2017-05-14T02:02:48.841Z,14.03
2017-05-14T02:03:29.417Z,14.02
2017-05-14T02:04:09.998Z,14
2017-05-14T02:04:50.580Z,14.04
2017-05-14T02:05:31.146Z,13.99
2017-05-14T02:06:11.729Z,14.04
2017-05-14T02:06:52.310Z,14.02
2017-05-14T02:07:32.884Z,14.02
2017-05-14T02:08:13.448Z,14.03
2017-05-14T02:08:54.043Z,14
2017-05-14T02:09:34.611Z,14.06
2017-05-14T02:10:15.190Z,13.99
2017-05-14T02:10:55.755Z,13.96
2017-05-14T02:11:36.325Z,14.03
2017-05-14T02:12:16.894Z,13.99
2017-05-14T02:12:57.466Z,14.02
2017-05-14T02:13:38.058Z,13.99
2017-05-14T02:14:18.649Z,13.95
2017-05-14T02:14:59.287Z,13.95
2017-05-14T02:15:39.818Z,13.88
2017-05-14T02:16:20.409Z,13.92
2017-05-14T02:17:00.991Z,13.92
2017-05-14T02:17:41.572Z,13.92
2017-05-14T02:18:22.146Z,13.95
2017-05-14T02:19:02.712Z,13.89
2017-05-14T02:19:43.285Z,13.85
2017-05-14T02:20:23.854Z,13.96
2017-05-14T02:21:04.428Z,13.88
2017-05-14T02:21:45.020Z,13.82
2017-05-14T02:22:25.590Z,13.84
2017-05-14T02:23:06.160Z,13.82
2017-05-14T02:23:46.734Z,13.85
2017-05-14T02:24:27.312Z,13.89
2017-05-14T02:25:07.891Z,13.82
2017-05-14T02:25:48.461Z,13.84
2017-05-14T02:26:29.041Z,13.77
2017-05-14T02:27:09.632Z,13.81
2017-05-14T02:27:50.224Z,13.79
2017-05-14T02:28:30.795Z,13.69
2017-05-14T02:29:11.367Z,13.71
2017-05-14T02:29:51.939Z,13.71
2017-05-14T02:30:32.506Z,13.67
2017-05-14T02:31:13.082Z,13.71
2017-05-14T02:31:53.655Z,13.64
2017-05-14T02:32:34.243Z,13.71
2017-05-14T02:33:14.836Z,13.6
2017-05-14T02:33:55.421Z,13.67
2017-05-14T02:34:36.047Z,13.63
2017-05-14T02:35:16.625Z,13.62
2017-05-14T02:35:57.204Z,13.62
2017-05-14T02:36:37.814Z,13.62
2017-05-14T02:37:18.384Z,13.57
2017-05-14T02:37:58.960Z,13.57
2017-05-14T02:38:39.546Z,13.52
2017-05-14T02:39:20.127Z,13.59
2017-05-14T02:40:00.726Z,13.59
2017-05-14T02:40:41.307Z,13.54
2017-05-14T02:41:21.878Z,13.55
2017-05-14T02:42:02.469Z,13.57
2017-05-14T02:42:43.061Z,13.52
2017-05-14T02:43:23.633Z,13.52
2017-05-14T02:44:04.218Z,13.55
2017-05-14T02:44:44.790Z,13.51
2017-05-14T02:45:25.364Z,13.52
2017-05-14T02:46:05.935Z,13.49
2017-05-14T02:46:46.528Z,13.49
2017-05-14T02:47:27.111Z,13.48
2017-05-14T02:48:07.699Z,13.57
2017-05-14T02:48:48.286Z,13.54
2017-05-14T02:49:28.875Z,13.46
2017-05-14T02:50:09.449Z,13.55
2017-05-14T02:50:50.018Z,13.39
2017-05-14T02:51:30.588Z,13.44
2017-05-14T02:52:11.160Z,13.45
2017-05-14T02:52:51.731Z,13.44
2017-05-14T02:53:32.304Z,13.41
2017-05-14T02:54:12.881Z,13.39
2017-05-14T02:54:53.448Z,13.42
2017-05-14T02:55:34.025Z,13.39
2017-05-14T02:56:14.613Z,13.29
2017-05-14T02:56:55.203Z,13.3
2017-05-14T02:57:35.813Z,13.28
2017-05-14T02:58:16.407Z,13.28
2017-05-14T02:58:57.023Z,13.26
2017-05-14T02:59:37.605Z,13.23
2017-05-14T03:00:18.207Z,13.17
2017-05-14T03:00:58.774Z,13.19
2017-05-14T03:01:39.391Z,13.19
2017-05-14T03:02:19.974Z,13.17
2017-05-14T03:03:00.569Z,13.11
2017-05-14T03:03:41.143Z,13.19
2017-05-14T03:04:21.728Z,13.1
2017-05-14T03:05:02.324Z,13.17
2017-05-14T03:05:42.901Z,13.12
2017-05-14T03:06:23.465Z,13.23
2017-05-14T03:07:04.040Z,13.2
2017-05-14T03:07:44.613Z,13.12
2017-05-14T03:08:25.176Z,13.11
2017-05-14T03:09:05.772Z,13.11
2017-05-14T03:09:46.343Z,13.08
2017-05-14T03:10:26.935Z,13.07
2017-05-14T03:11:07.526Z,13.08
2017-05-14T03:11:48.096Z,13.05
2017-05-14T03:12:28.665Z,13.08
2017-05-14T03:13:09.280Z,13.08
2017-05-14T03:13:49.852Z,13.04
2017-05-14T03:14:30.440Z,13.11
2017-05-14T03:15:11.018Z,13.05
2017-05-14T03:15:51.596Z,13.03
2017-05-14T03:16:32.173Z,13.11
2017-05-14T03:17:12.736Z,13.05
2017-05-14T03:17:53.303Z,13.01
2017-05-14T03:18:33.891Z,13.08
2017-05-14T03:19:14.464Z,13.04
2017-05-14T03:19:55.080Z,13.04
2017-05-14T03:20:35.649Z,13.01
2017-05-14T03:21:16.221Z,13.01
2017-05-14T03:21:56.792Z,13.04
2017-05-14T03:22:37.364Z,13.04
2017-05-14T03:23:17.935Z,13.04
2017-05-14T03:23:58.512Z,13.01
2017-05-14T03:24:39.081Z,13.08
2017-05-14T03:25:19.651Z,13.01
2017-05-14T03:26:00.224Z,13.08
2017-05-14T03:26:40.810Z,13.01
2017-05-14T03:27:21.402Z,13.01
2017-05-14T03:28:01.993Z,13.01
2017-05-14T03:28:42.578Z,12.97
2017-05-14T03:29:23.147Z,13.04
2017-05-14T03:30:03.711Z,13.05
2017-05-14T03:30:44.284Z,13.03
2017-05-14T03:31:24.852Z,13.04
2017-05-14T03:32:05.430Z,13.07
2017-05-14T03:32:45.998Z,13.04
2017-05-14T03:33:26.567Z,13.01
2017-05-14T03:34:07.184Z,13.04
2017-05-14T03:34:47.757Z,13.04
2017-05-14T03:35:28.323Z,13.04
2017-05-14T03:36:08.894Z,13.01
2017-05-14T03:36:49.464Z,13.04
2017-05-14T03:37:30.034Z,13.07
2017-05-14T03:38:10.610Z,13.03
2017-05-14T03:38:51.212Z,13.11
2017-05-14T03:39:31.783Z,12.95
2017-05-14T03:40:12.364Z,13.04
2017-05-14T03:40:52.950Z,13.12
2017-05-14T03:41:33.548Z,13.07
2017-05-14T03:42:14.142Z,13.1
2017-05-14T03:42:54.709Z,13.12
2017-05-14T03:43:35.282Z,13.11
2017-05-14T03:44:15.858Z,13.1
2017-05-14T03:44:56.431Z,13.12
2017-05-14T03:45:37.015Z,13.14
2017-05-14T03:46:17.591Z,13.12
2017-05-14T03:46:58.173Z,13.08
2017-05-14T03:47:38.748Z,13.12
2017-05-14T03:48:19.317Z,13.05
2017-05-14T03:48:59.908Z,13.04
2017-05-14T03:49:40.487Z,13.12
2017-05-14T03:50:21.059Z,13.08
2017-05-14T03:51:01.630Z,13.1
2017-05-14T03:51:42.219Z,13.01
2017-05-14T03:52:22.788Z,13.01
2017-05-14T03:53:03.443Z,13.03
2017-05-14T03:53:44.025Z,13.01
2017-05-14T03:54:24.604Z,13.03
2017-05-14T03:55:05.180Z,13.04
2017-05-14T03:55:45.755Z,13.01
2017-05-14T03:56:26.325Z,13.04
2017-05-14T03:57:06.892Z,12.95
2017-05-14T03:57:47.470Z,12.95
2017-05-14T03:58:28.033Z,12.93
2017-05-14T03:59:08.609Z,12.95
2017-05-14T03:59:49.199Z,13.01
2017-05-14T04:00:29.781Z,12.95
2017-05-14T04:01:10.370Z,12.92
2017-05-14T04:01:50.939Z,12.95
2017-05-14T04:02:31.504Z,12.93
2017-05-14T04:03:12.076Z,12.97
2017-05-14T04:03:52.646Z,13
2017-05-14T04:04:33.222Z,12.93
2017-05-14T04:05:13.788Z,12.97
2017-05-14T04:05:54.368Z,12.96
2017-05-14T04:06:34.941Z,12.93
2017-05-14T04:07:15.508Z,12.97
2017-05-14T04:07:56.079Z,12.96
2017-05-14T04:08:36.650Z,12.97
2017-05-14T04:09:17.218Z,12.87
2017-05-14T04:09:57.796Z,12.89
2017-05-14T04:10:38.368Z,12.87
2017-05-14T04:11:18.935Z,12.87
2017-05-14T04:11:59.506Z,12.83
2017-05-14T04:12:40.089Z,12.82
2017-05-14T04:13:20.666Z,12.82
2017-05-14T04:14:01.240Z,12.82
2017-05-14T04:14:41.814Z,12.72
2017-05-14T04:15:22.389Z,12.82
2017-05-14T04:16:02.967Z,12.75
2017-05-14T04:16:43.544Z,12.79
2017-05-14T04:17:24.123Z,12.78
2017-05-14T04:18:04.688Z,12.78
2017-05-14T04:18:45.259Z,12.82
2017-05-14T04:19:25.852Z,12.74
2017-05-14T04:20:06.486Z,12.79
2017-05-14T04:20:47.063Z,12.79
2017-05-14T04:21:27.631Z,12.87
2017-05-14T04:22:08.199Z,12.82
2017-05-14T04:22:48.769Z,12.78
2017-05-14T04:23:29.344Z,12.77
2017-05-14T04:24:09.927Z,12.78
2017-05-14T04:24:50.504Z,12.78
2017-05-14T04:25:31.075Z,12.67
2017-05-14T04:26:11.652Z,12.77
2017-05-14T04:26:52.233Z,12.68
2017-05-14T04:27:32.811Z,12.71
2017-05-14T04:28:13.400Z,12.65
2017-05-14T04:28:54.014Z,12.68
2017-05-14T04:29:34.601Z,12.71
2017-05-14T04:30:15.183Z,12.74
2017-05-14T04:30:55.750Z,12.68
2017-05-14T04:31:36.320Z,12.72
2017-05-14T04:32:16.889Z,12.68
2017-05-14T04:32:57.461Z,12.67
2017-05-14T04:33:38.038Z,12.7
2017-05-14T04:34:18.606Z,12.67
2017-05-14T04:34:59.175Z,12.71
2017-05-14T04:35:39.755Z,12.68
2017-05-14T04:36:20.325Z,12.65
2017-05-14T04:37:00.896Z,12.68
2017-05-14T04:37:41.478Z,12.7
2017-05-14T04:38:22.048Z,12.7
2017-05-14T04:39:02.620Z,12.71
2017-05-14T04:39:43.194Z,12.7
2017-05-14T04:40:23.782Z,12.68
2017-05-14T04:41:04.360Z,12.65
2017-05-14T04:41:44.927Z,12.68
2017-05-14T04:42:25.504Z,12.7
2017-05-14T04:43:06.097Z,12.68
2017-05-14T04:43:46.672Z,12.7
2017-05-14T04:44:27.265Z,12.67
2017-05-14T04:45:07.832Z,12.68
2017-05-14T04:45:48.408Z,12.68
2017-05-14T04:46:28.981Z,12.78
2017-05-14T04:47:09.552Z,12.82
2017-05-14T04:47:50.134Z,12.82
2017-05-14T04:48:30.701Z,12.78
2017-05-14T04:49:11.280Z,12.83
2017-05-14T04:49:51.858Z,12.87
2017-05-14T04:50:32.428Z,12.83
2017-05-14T04:51:12.994Z,12.77
2017-05-14T04:51:53.564Z,12.78
2017-05-14T04:52:34.159Z,12.79
2017-05-14T04:53:14.752Z,12.77
2017-05-14T04:53:55.313Z,12.83
2017-05-14T04:54:35.914Z,12.86
2017-05-14T04:55:16.486Z,12.75
2017-05-14T04:55:57.069Z,12.79
2017-05-14T04:56:37.632Z,12.79
2017-05-14T04:57:18.225Z,12.86
2017-05-14T04:57:58.808Z,12.79
2017-05-14T04:58:39.389Z,12.78
2017-05-14T04:59:19.979Z,12.86
2017-05-14T05:00:00.548Z,12.74
2017-05-14T05:00:41.148Z,12.75
2017-05-14T05:01:21.751Z,12.79
2017-05-14T05:02:02.355Z,12.77
2017-05-14T05:02:42.958Z,12.86
2017-05-14T05:03:23.547Z,12.77
2017-05-14T05:04:04.154Z,12.83
2017-05-14T05:04:44.751Z,12.85
2017-05-14T05:05:25.357Z,12.82
2017-05-14T05:06:05.934Z,12.82
2017-05-14T05:06:46.501Z,12.82
2017-05-14T05:07:27.082Z,12.82
2017-05-14T05:08:07.651Z,12.79
2017-05-14T05:08:48.221Z,12.87
2017-05-14T05:09:28.792Z,12.78
2017-05-14T05:10:09.377Z,12.85
2017-05-14T05:10:49.981Z,12.83
2017-05-14T05:11:30.581Z,12.75
2017-05-14T05:12:11.160Z,12.78
2017-05-14T05:12:51.727Z,12.86
2017-05-14T05:13:32.318Z,12.83
2017-05-14T05:14:12.906Z,12.83
2017-05-14T05:14:53.481Z,12.86
2017-05-14T05:15:34.068Z,12.79
2017-05-14T05:16:14.641Z,12.86
2017-05-14T05:16:55.210Z,12.9
2017-05-14T05:17:35.789Z,12.83
2017-05-14T05:18:16.514Z,12.85
2017-05-14T05:18:57.091Z,12.89
2017-05-14T05:19:37.672Z,12.83
2017-05-14T05:20:18.253Z,12.83
2017-05-14T05:20:58.879Z,12.82
2017-05-14T05:21:39.453Z,12.85
2017-05-14T05:22:20.023Z,12.89
2017-05-14T05:23:00.610Z,12.83
2017-05-14T05:23:41.178Z,12.86
2017-05-14T05:24:21.751Z,12.86
2017-05-14T05:25:02.317Z,12.95
2017-05-14T05:25:42.897Z,12.9
2017-05-14T05:26:23.469Z,12.86
2017-05-14T05:27:04.040Z,12.87
2017-05-14T05:27:44.643Z,12.86
2017-05-14T05:28:25.219Z,12.95
2017-05-14T05:29:05.804Z,12.9
2017-05-14T05:29:46.406Z,12.9
2017-05-14T05:30:26.978Z,12.92
2017-05-14T05:31:07.546Z,12.93
2017-05-14T05:31:48.113Z,12.96
2017-05-14T05:32:28.703Z,12.96
2017-05-14T05:33:09.281Z,12.93
2017-05-14T05:33:49.855Z,12.96
2017-05-14T05:34:30.445Z,12.96
2017-05-14T05:35:11.085Z,12.93
2017-05-14T05:35:51.656Z,13.01
2017-05-14T05:36:32.260Z,12.96
2017-05-14T05:37:12.827Z,12.96
2017-05-14T05:37:53.398Z,13.07
2017-05-14T05:38:33.986Z,13.03
2017-05-14T05:39:14.557Z,13.01
2017-05-14T05:39:55.175Z,13.05
2017-05-14T05:40:35.760Z,13.08
2017-05-14T05:41:16.406Z,13.11
2017-05-14T05:41:57.076Z,13.11
2017-05-14T05:42:37.645Z,13.01
2017-05-14T05:43:18.215Z,13.07
2017-05-14T05:43:58.784Z,13.08
2017-05-14T05:44:39.361Z,13.17
2017-05-14T05:45:19.930Z,13.15
2017-05-14T05:46:01.425Z,13.19
2017-05-14T05:46:43.148Z,13.1
2017-05-14T05:47:24.170Z,13.22
2017-05-14T05:48:04.751Z,13.19
2017-05-14T05:48:45.324Z,13.22
2017-05-14T05:49:25.895Z,13.2
2017-05-14T05:50:06.472Z,13.22
2017-05-14T05:50:47.048Z,13.25
2017-05-14T05:51:27.630Z,13.2
2017-05-14T05:52:08.204Z,13.28
2017-05-14T05:52:48.775Z,13.29
2017-05-14T05:53:29.368Z,13.26
2017-05-14T05:54:09.973Z,13.33
2017-05-14T05:54:50.567Z,13.3
2017-05-14T05:55:31.141Z,13.33
2017-05-14T05:56:11.712Z,13.3
2017-05-14T05:56:52.293Z,13.33
2017-05-14T05:57:32.868Z,13.48
2017-05-14T05:58:13.436Z,13.45
2017-05-14T05:58:54.018Z,13.44
2017-05-14T05:59:34.592Z,13.44
2017-05-14T06:00:15.165Z,13.52
2017-05-14T06:00:55.810Z,13.57
2017-05-14T06:01:36.384Z,13.59
2017-05-14T06:02:16.960Z,13.59
2017-05-14T06:02:57.546Z,13.6
2017-05-14T06:03:38.116Z,13.59
2017-05-14T06:04:18.689Z,13.63
2017-05-14T06:04:59.266Z,13.64
2017-05-14T06:05:39.842Z,13.64
2017-05-14T06:06:20.418Z,13.7
2017-05-14T06:07:00.993Z,13.7
2017-05-14T06:07:41.570Z,13.73
2017-05-14T06:08:22.144Z,13.7
2017-05-14T06:09:02.715Z,13.78
2017-05-14T06:09:43.284Z,13.84
2017-05-14T06:10:23.852Z,13.85
2017-05-14T06:11:04.521Z,13.82
2017-05-14T06:11:45.056Z,13.85
2017-05-14T06:12:25.628Z,13.99
2017-05-14T06:13:06.196Z,13.81
2017-05-14T06:13:46.775Z,13.92
2017-05-14T06:14:27.347Z,14.02
2017-05-14T06:15:07.924Z,14.06
2017-05-14T06:15:48.490Z,13.96
2017-05-14T06:16:29.083Z,14.03
2017-05-14T06:17:09.651Z,14.09
2017-05-14T06:17:50.218Z,14.06
2017-05-14T06:18:30.873Z,14.03
2017-05-14T06:19:11.411Z,14.15
2017-05-14T06:19:51.985Z,14.22
2017-05-14T06:20:32.570Z,14.1
2017-05-14T06:21:13.143Z,14.17
2017-05-14T06:21:53.711Z,14.24
2017-05-14T06:22:34.281Z,14.25
2017-05-14T06:23:14.854Z,14.21
2017-05-14T06:23:55.426Z,14.33
2017-05-14T06:24:35.997Z,14.39
2017-05-14T06:25:16.578Z,14.4
2017-05-14T06:25:57.230Z,14.4
2017-05-14T06:26:37.816Z,14.47
2017-05-14T06:27:18.393Z,14.47
2017-05-14T06:27:59.128Z,14.55
2017-05-14T06:28:39.715Z,14.54
2017-05-14T06:29:20.293Z,14.62
2017-05-14T06:30:00.873Z,14.62
2017-05-14T06:30:41.487Z,14.75
2017-05-14T06:31:22.419Z,14.75
2017-05-14T06:32:02.939Z,14.84
2017-05-14T06:32:43.531Z,14.84
2017-05-14T06:33:24.110Z,14.8
2017-05-14T06:34:04.691Z,14.95
2017-05-14T06:34:45.285Z,14.92
2017-05-14T06:35:25.892Z,15.07
2017-05-14T06:36:06.635Z,15.01
2017-05-14T06:36:47.212Z,15.11
2017-05-14T06:37:27.796Z,15.11
2017-05-14T06:38:08.377Z,15.2
2017-05-14T06:38:48.955Z,15.2
2017-05-14T06:39:29.526Z,15.31
2017-05-14T06:40:10.117Z,15.34
2017-05-14T06:40:50.702Z,15.47
2017-05-14T06:41:31.275Z,15.62
2017-05-14T06:42:12.166Z,15.57
2017-05-14T06:42:52.800Z,15.68
2017-05-14T06:43:33.387Z,15.82
2017-05-14T06:44:13.964Z,15.8
2017-05-14T06:44:54.578Z,15.92
2017-05-14T06:45:35.162Z,15.87
2017-05-14T06:46:15.826Z,16.02
2017-05-14T06:46:56.463Z,15.97
2017-05-14T06:47:37.034Z,16.02
2017-05-14T06:48:17.616Z,16.07
2017-05-14T06:48:58.266Z,16.05
2017-05-14T06:49:38.844Z,16.15
2017-05-14T06:50:19.427Z,16.12
2017-05-14T06:50:59.998Z,16.28
2017-05-14T06:51:40.575Z,16.3
2017-05-14T06:52:21.159Z,16.34
2017-05-14T06:53:01.739Z,16.42
2017-05-14T06:53:42.332Z,16.43
2017-05-14T06:54:22.920Z,16.52
2017-05-14T06:55:03.488Z,16.52
2017-05-14T06:55:44.063Z,16.61
2017-05-14T06:56:24.657Z,16.71
2017-05-14T06:57:05.253Z,16.64
2017-05-14T06:57:45.823Z,16.78
2017-05-14T06:58:26.405Z,16.85
2017-05-14T06:59:07.003Z,16.88
2017-05-14T06:59:47.596Z,16.88
2017-05-14T07:00:28.168Z,16.88
2017-05-14T07:01:08.748Z,16.98
2017-05-14T07:01:49.327Z,17.07
2017-05-14T07:02:29.922Z,17.16
2017-05-14T07:03:10.630Z,17.22
2017-05-14T07:03:51.208Z,17.34
2017-05-14T07:04:31.777Z,17.36
2017-05-14T07:05:12.365Z,17.43
2017-05-14T07:05:52.945Z,17.52
2017-05-14T07:06:33.528Z,17.59
2017-05-14T07:07:14.104Z,17.56
2017-05-14T07:07:54.682Z,17.63
2017-05-14T07:08:35.254Z,17.7
2017-05-14T07:09:15.826Z,17.72
2017-05-14T07:09:56.430Z,17.78
2017-05-14T07:10:37.016Z,17.86
2017-05-14T07:11:17.595Z,17.93
2017-05-14T07:11:58.189Z,17.96
2017-05-14T07:12:38.768Z,18.08
2017-05-14T07:13:19.349Z,17.99
2017-05-14T07:13:59.932Z,18.07
2017-05-14T07:14:40.507Z,18.11
2017-05-14T07:15:21.090Z,18.17
2017-05-14T07:16:01.741Z,18.21
2017-05-14T07:16:42.292Z,18.36
2017-05-14T07:17:22.871Z,18.37
2017-05-14T07:18:03.459Z,18.45
2017-05-14T07:18:44.033Z,18.51
2017-05-14T07:19:24.614Z,18.51
2017-05-14T07:20:05.254Z,18.58
2017-05-14T07:20:45.838Z,18.58
2017-05-14T07:21:26.429Z,18.67
2017-05-14T07:22:07.020Z,18.73
2017-05-14T07:22:47.611Z,18.73
2017-05-14T07:23:28.190Z,18.69
2017-05-14T07:24:08.769Z,18.66
2017-05-14T07:24:49.385Z,18.6
2017-05-14T07:25:29.979Z,18.57
2017-05-14T07:26:10.592Z,18.65
2017-05-14T07:26:51.183Z,18.62
2017-05-14T07:27:31.804Z,18.57
2017-05-14T07:28:12.388Z,18.65
2017-05-14T07:28:52.979Z,18.66
2017-05-14T07:29:33.562Z,18.51
2017-05-14T07:30:14.146Z,18.75
2017-05-14T07:30:54.733Z,18.66
2017-05-14T07:31:35.338Z,18.67
2017-05-14T07:32:15.887Z,18.67
2017-05-14T07:32:56.462Z,18.63
2017-05-14T07:33:37.038Z,18.67
2017-05-14T07:34:17.614Z,18.69
2017-05-14T07:34:58.189Z,18.55
2017-05-14T07:35:38.776Z,18.66
2017-05-14T07:36:19.363Z,18.72
2017-05-14T07:36:59.947Z,18.66
2017-05-14T07:37:40.512Z,18.67
2017-05-14T07:38:21.085Z,18.67
2017-05-14T07:39:01.673Z,18.66
2017-05-14T07:39:42.250Z,18.57
2017-05-14T07:40:22.823Z,18.58
2017-05-14T07:41:03.403Z,18.63
2017-05-14T07:41:43.981Z,18.63
2017-05-14T07:42:24.572Z,18.63
2017-05-14T07:43:05.159Z,18.62
2017-05-14T07:43:45.738Z,18.54
2017-05-14T07:44:26.320Z,18.52
2017-05-14T07:45:06.901Z,18.51
2017-05-14T07:45:47.489Z,18.51
2017-05-14T07:46:28.071Z,18.57
2017-05-14T07:47:08.655Z,18.48
2017-05-14T07:47:49.245Z,18.47
2017-05-14T07:48:29.848Z,18.52
2017-05-14T07:49:10.431Z,18.5
2017-05-14T07:49:51.020Z,18.57
2017-05-14T07:50:31.593Z,18.52
2017-05-14T07:51:12.185Z,18.45
2017-05-14T07:51:52.757Z,18.45
2017-05-14T07:52:33.373Z,18.5
2017-05-14T07:53:13.924Z,18.41
2017-05-14T07:53:54.508Z,18.44
2017-05-14T07:54:35.084Z,18.45
2017-05-14T07:55:15.672Z,18.44
2017-05-14T07:55:56.254Z,18.35
2017-05-14T07:56:36.828Z,18.33
2017-05-14T07:57:17.407Z,18.41
2017-05-14T07:57:57.982Z,18.29
2017-05-14T07:58:38.568Z,18.33
2017-05-14T07:59:19.165Z,18.3
2017-05-14T07:59:59.752Z,18.35
2017-05-14T08:00:40.325Z,18.3
2017-05-14T08:01:20.906Z,18.32
2017-05-14T08:02:01.489Z,18.35
2017-05-14T08:02:42.071Z,18.37
2017-05-14T08:03:22.677Z,18.39
2017-05-14T08:04:03.264Z,18.44
2017-05-14T08:04:43.838Z,18.5
2017-05-14T08:05:24.413Z,18.51
2017-05-14T08:06:04.992Z,18.5
2017-05-14T08:06:45.580Z,18.55
2017-05-14T08:07:26.149Z,18.51
2017-05-14T08:08:06.732Z,18.51
2017-05-14T08:08:47.307Z,18.51
2017-05-14T08:09:27.892Z,18.5
2017-05-14T08:10:08.464Z,18.5
2017-05-14T08:10:49.040Z,18.47
2017-05-14T08:11:29.623Z,18.48
2017-05-14T08:12:10.203Z,18.51
2017-05-14T08:12:50.782Z,18.5
2017-05-14T08:13:31.360Z,18.47
2017-05-14T08:14:11.962Z,18.47
2017-05-14T08:14:52.549Z,18.47
2017-05-14T08:15:33.116Z,18.51
2017-05-14T08:16:13.692Z,18.55
2017-05-14T08:16:54.267Z,18.5
2017-05-14T08:17:34.841Z,18.47
2017-05-14T08:18:15.415Z,18.41
2017-05-14T08:18:55.997Z,18.33
2017-05-14T08:19:36.578Z,18.36
2017-05-14T08:20:17.164Z,18.32
2017-05-14T08:20:57.736Z,18.25
2017-05-14T08:21:38.320Z,18.29
2017-05-14T08:22:18.892Z,18.17
2017-05-14T08:22:59.500Z,18.15
2017-05-14T08:23:40.083Z,18.08
2017-05-14T08:24:20.661Z,18.02
2017-05-14T08:25:01.243Z,18.05
2017-05-14T08:25:41.817Z,17.95
2017-05-14T08:26:22.412Z,17.9
2017-05-14T08:27:02.981Z,17.93
2017-05-14T08:27:43.571Z,17.95
2017-05-14T08:28:24.158Z,17.9
2017-05-14T08:29:04.736Z,17.97
2017-05-14T08:29:45.308Z,17.95
2017-05-14T08:30:25.900Z,17.95
2017-05-14T08:31:06.490Z,17.93
2017-05-14T08:31:47.076Z,18.08
2017-05-14T08:32:27.654Z,18.03
2017-05-14T08:33:08.245Z,17.95
2017-05-14T08:33:48.855Z,18.07
2017-05-14T08:34:29.448Z,17.99
2017-05-14T08:35:10.041Z,18
2017-05-14T08:35:50.622Z,18.05
2017-05-14T08:36:31.206Z,18.1
2017-05-14T08:37:11.802Z,18.15
2017-05-14T08:37:52.375Z,18.1
2017-05-14T08:38:32.976Z,18.12
2017-05-14T08:39:13.555Z,18.25
2017-05-14T08:39:54.130Z,18.3
2017-05-14T08:40:34.706Z,18.27
2017-05-14T08:41:15.285Z,18.39
2017-05-14T08:41:55.872Z,18.36
2017-05-14T08:42:36.468Z,18.35
2017-05-14T08:43:17.061Z,18.35
2017-05-14T08:43:57.636Z,18.36
2017-05-14T08:44:38.217Z,18.48